Address 0x2039f455707b4822853c2937ebce0c200b91d1c5

 

Overview

Balance:
0.005240922093925233 BNB

BNB Value:
$2.52 (@ $481.65/BNB)

Token:
 
Txn Hash Method
Block
From
To
Value [Txn Fee]
0xd03a4fc71245c99df2d199f39a0d8db2478cad092b1cfcaeb9dcb36aa45fc5e7Transfer119668312021-10-21 14:17:232 days 3 hrs ago0x2039f455707b4822853c2937ebce0c200b91d1c5OUT0x5b14d397d6b7068649ef2f193c28d52ddb79bfe10.002 BNB0.000105
0x1a730c9ab76ba734d6bcde64135ac22fd8fe64e6b3ab19d8dac0d6753cf5ce2bTransfer119633412021-10-21 11:14:062 days 6 hrs ago0x2039f455707b4822853c2937ebce0c200b91d1c5OUT Metahero: HERO Token0 BNB0.00081049
0x092fdff2cc45f87690263cff6536eced2df198f3d3e5e41618404859d670a9f0Swap Exact Token...119471192021-10-20 21:29:552 days 20 hrs ago0x2039f455707b4822853c2937ebce0c200b91d1c5OUT PancakeSwap: Router v20 BNB0.00121278
0x51b1631112543cd02b4e8daf332d8b92d0e19154f687bb73f805fa0d9e189305Swap Exact Token...119456422021-10-20 20:15:482 days 21 hrs ago0x2039f455707b4822853c2937ebce0c200b91d1c5OUT PancakeSwap: Router v20 BNB0.001345
0xd17ccaa45b4d4f567032e1fa3c9a7765d82d59199d2a718b02a749b1fe853582Swap Exact Token...119456332021-10-20 20:15:212 days 21 hrs ago0x2039f455707b4822853c2937ebce0c200b91d1c5OUT PancakeSwap: Router v20 BNB0.00019515
0xcdf4474244f466ee6f9fc08f062bcfac372c3a5da8a9cde2af57d8283e8f484cTransfer119398672021-10-20 15:22:523 days 2 hrs ago0x2039f455707b4822853c2937ebce0c200b91d1c5OUT Binance: BUSD Stablecoin0 BNB0.000180695
0x3571da72913ef61a99f21154475a5f4deaf09c1804b0fd5e2093ce1829f5f0b0Swap Exact Token...119397822021-10-20 15:18:373 days 2 hrs ago0x2039f455707b4822853c2937ebce0c200b91d1c5OUT PancakeSwap: Router v20 BNB0.00081962
0x3b80ccc07d68f7300c2b89e812986e6ef40c38ccd17a7a0540740b296e149602Swap Tokens For ...119397702021-10-20 15:18:013 days 2 hrs ago0x2039f455707b4822853c2937ebce0c200b91d1c5OUT PancakeSwap: Router v20 BNB0.000628025
0x89ea8299a3d350ccedb86a9c423523cd9aeab82b68ab389355a95ef363d8fe4eTransfer119397232021-10-20 15:15:403 days 2 hrs ago0x4b5a777c9945e3bd68ba3cc6c7d7e44d2d4458eb IN 0x2039f455707b4822853c2937ebce0c200b91d1c50.002 BNB0.000105
0xa8c3ad1ab7ec71a7b575bd9fe67f1fcce85c0681ee30fa49d141751be4901d61Swap Exact Token...119204672021-10-19 23:06:123 days 19 hrs ago0x2039f455707b4822853c2937ebce0c200b91d1c5OUT PancakeSwap: Router v20 BNB0.000970975
0x0ddab470a811baf5ac5005b5b04d7b3c87976c711b7831538b7149c79b1c84a8Swap Exact Token...119203692021-10-19 23:01:183 days 19 hrs ago0x2039f455707b4822853c2937ebce0c200b91d1c5OUT PancakeSwap: Router v20 BNB0.00081962
0xc6e64b4b244a8f37fdbf356a7074eddf74ddce91fe9b29aeec0e2d05f0df1e43Transfer119196612021-10-19 22:25:393 days 19 hrs ago0x2039f455707b4822853c2937ebce0c200b91d1c5OUT Binance: BUSD Stablecoin0 BNB0.000255575
0xdba17320d27f95825fec7d6dcc50b914d562ba47b61f351700a7ec55372a1f0eSwap Exact Token...119195872021-10-19 22:21:573 days 19 hrs ago0x2039f455707b4822853c2937ebce0c200b91d1c5OUT PancakeSwap: Router v20 BNB0.000970975
0x2e92101fc0390b035dcac4899576d320e3e7999f9f5ec56d9ed8b249d78fee97Swap Exact Token...119072092021-10-19 11:31:074 days 6 hrs ago0x2039f455707b4822853c2937ebce0c200b91d1c5OUT PancakeSwap: Router v20 BNB0.00081956
0xcf9d7563a4515b30e48214ca56d2cc4a384c4245b68f3d9d3c88f00dc799176aSwap Exact Token...119071452021-10-19 11:27:554 days 6 hrs ago0x2039f455707b4822853c2937ebce0c200b91d1c5OUT PancakeSwap: Router v20 BNB0.00134808
0x81ee3b9978a6a0a8d0177d8ea8a8e387a91927de98e78619d05f8a672e46a482Swap Exact Token...119071132021-10-19 11:26:194 days 6 hrs ago0x2039f455707b4822853c2937ebce0c200b91d1c5OUT PancakeSwap: Router v20 BNB0.00113581
0xe6fa820a75d0091b8160090e282f6b56e6f6c6b729117a32125ef0144252acf1Swap Exact Token...119063872021-10-19 10:50:004 days 7 hrs ago0x2039f455707b4822853c2937ebce0c200b91d1c5OUT PancakeSwap: Router v20 BNB0.00128766
0x7212971884794d0c46faa223711bac347c06455c123df1d05d8b1184ff653fa2Swap Exact Token...119063272021-10-19 10:47:004 days 7 hrs ago0x2039f455707b4822853c2937ebce0c200b91d1c5OUT PancakeSwap: Router v20 BNB0.00107539
0x5a05250a98e85c79fc277bcf7a068ca2b43c7df09656c2a7561859b26ef66432Swap Exact Token...119047352021-10-19 9:27:124 days 8 hrs ago0x2039f455707b4822853c2937ebce0c200b91d1c5OUT PancakeSwap: Router v20 BNB0.00119808
0x4e05062c38abfbd8234622db7e3ba1168a61cb722663a66d482636ce4e4098c2Swap Exact Token...119032792021-10-19 8:14:244 days 9 hrs ago0x2039f455707b4822853c2937ebce0c200b91d1c5OUT PancakeSwap: Router v20 BNB0.0008945
0x1f69e952ab8b0babbefda0036dfa20bf55dd11967fcbf39a8aadad44a7993061Swap Exact Token...119032612021-10-19 8:13:304 days 9 hrs ago0x2039f455707b4822853c2937ebce0c200b91d1c5OUT PancakeSwap: Router v20 BNB0.000597695
0x6cff21677ceb2470440eaaa0f2e2d3ecd0ffbc95b872fa43219247f2d5d4ec94Swap Exact Token...119031072021-10-19 8:05:484 days 10 hrs ago0x2039f455707b4822853c2937ebce0c200b91d1c5OUT PancakeSwap: Router v20 BNB0.00068835
0xfccf04ce63f9dfecaa7431e73c4c45ec9413a87de19b838e41225308f813f575Swap Exact Token...119029382021-10-19 7:57:214 days 10 hrs ago0x2039f455707b4822853c2937ebce0c200b91d1c5OUT PancakeSwap: Router v20 BNB0.001031395
0x805c29d56808ffc23598c87bbc02f361d948c0607962f263c22047475b600654Swap Exact Token...119025952021-10-19 7:40:124 days 10 hrs ago0x2039f455707b4822853c2937ebce0c200b91d1c5OUT PancakeSwap: Router v20 BNB0.003781815
0xd6d2abdd95481a58f8d015b013350c5d12f34212498eac390026665f4aab8b70Swap Exact Token...118931752021-10-18 23:47:204 days 18 hrs ago0x2039f455707b4822853c2937ebce0c200b91d1c5OUT PancakeSwap: Router v20 BNB0.001044305
[ Download CSV Export 
Latest 7 internal transactions
Parent Txn Hash Block From To Value
0x3b80ccc07d68f7300c2b89e812986e6ef40c38ccd17a7a0540740b296e149602119397702021-10-20 15:18:013 days 2 hrs ago PancakeSwap: Router v20x2039f455707b4822853c2937ebce0c200b91d1c50.0100451 BNB
0x6cff21677ceb2470440eaaa0f2e2d3ecd0ffbc95b872fa43219247f2d5d4ec94119031072021-10-19 8:05:484 days 10 hrs ago PancakeSwap: Router v20x2039f455707b4822853c2937ebce0c200b91d1c50.010132436088569484 BNB
0xb97c50b51d5c7c28dc3e279266a42c39b1bcf8768b9d1e52979f3f04934adabd118925702021-10-18 23:17:054 days 18 hrs ago PancakeSwap: Router v20x2039f455707b4822853c2937ebce0c200b91d1c50.014406074773316504 BNB
0xd16ed634df53e0aaf4c1e2c31b33ae117be547b98846078646110ab2a2ad238a118895362021-10-18 20:45:214 days 21 hrs ago PancakeSwap: Router v20x2039f455707b4822853c2937ebce0c200b91d1c50.020760921389612649 BNB
0x4d1fc23a636337a94560b2cd3a0723ca98ef888d292ee0219476bb3b23f8aae2118299032021-10-16 18:47:346 days 23 hrs ago PancakeSwap: Router v20x2039f455707b4822853c2937ebce0c200b91d1c50.021356615707057373 BNB
0x870b90f2f28f69ae2ce3d027221c1f070f0420572f2dc18dec64d03adf8f590f117417622021-10-13 17:00:2510 days 1 hr ago PancakeSwap: Router v20x2039f455707b4822853c2937ebce0c200b91d1c50.0218783612592537 BNB
0x785cc90bc271edf36518718ac19c3219380bfb2e232ce391ebd9628910653f7c117060922021-10-12 10:46:2011 days 7 hrs ago PancakeSwap: Router v20x2039f455707b4822853c2937ebce0c200b91d1c50.025264942876115523 BNB
[ Download CSV Export 
Loading

Contract Name:
0 BNB

Compiler Version
0

Optimization Enabled:
0 BNB

Other Settings:
-NA-
Block Transaction Gas Used Reward
Age Block Fee Address BC Fee Address Voting Power Jailed Incoming
Block Uncle Number Difficulty Gas Used Reward
Loading
Loading
Make sure to use the "Vote Down" button for any spammy posts, and the "Vote Up" for interesting conversations.